North Woods Beach, Wisconsin
Current Conditions -  °F | °C
As of 2:53 PM on Sunday 23 Nov 2014 (Local Time) from KHYR Reporting Station
Moderate Fog Moderate Fog  
Wind Chill: 44°   Ceiling: 300
Heat Index: 44°   Visibility: 0mi
Dew Point: 43°   Wind: 0mph
Humidity: 96%   Direction: NA
Pressure: 29.37"   Gusts: NA
Location:  46.0387°N, 91.2627°W
Report Text: KHYR 232053Z AUTO 00000KT M1/4SM FG VV003 07/06 A2937 RMK AO2 RAB27E43 SLP954 P0000 60000 T00670061 57018
Loading
Personal Weather Stations






























Interactive Weather Map New forecast layout! Learn more

10-Day Weather Forecast

Advertisements
Track Severe Weather on mobile